Airfield :
LOGIN :

Register | Disclaimer

   EN    FR    IT 

 










Legend :    VFR   Marginal VFR   IFR   Intensive IFR   Very Intensive IFR
Visi :
Ceiling :
>= 8 km
>= 3000ft
5 to 8 km
1000 to 3000 ft
1500m to 5 km
500 to 1000 ft
800 to 1500m
200 to 500 ft
< 800m
< 200 ft
Symbols :   Thunderstorms  Fog  Heavy snow  Heavy precipitations  Wind > 20 kt
SIGMETs :     Misc.  Thunderstorms  Icing  Turbulence  Mountain Waves  Volcanic Ashes






- Airport Elevation : 141 ft
- IATA code : TGD


LYPG - Podgorica - Montenegro

CURRENT METAR :
  • 291230Z 16004KT 120V220 CAVOK 12/M06 Q1020 NOSIG

EXPIRED METARs :
  • 291200Z 15004KT 100V220 CAVOK 11/M06 Q1020 NOSIG
  • 291130Z 17005KT 140V230 CAVOK 11/M06 Q1021 NOSIG
  • 291100Z 16005KT CAVOK 11/M07 Q1021 NOSIG
  • 291030Z 13003KT CAVOK 11/M08 Q1021 NOSIG
  • 291000Z VRB01KT CAVOK 10/M09 Q1022 NOSIG

TAF TAF LYPG
Valid from the 29 at 12:00 until the 01 at 12:00 UTC


291100Z 2912/0112 16005KT CAVOK TX12/2913Z TN02/0106Z



MET'MAP, your aeronautical weather chart ! - Copyright ORBIFLY December 2007 - Disclaimer

ORBIFLY MET'MAP TEAM :

Programming & Development : Alexandra Zaïnal
Concept & original design : Baudouin d'Aumeries
Assistance for programming : Marc-Olivier Méhu
Technical & hardware support : Manuel Goepfert

Contact : metmap@orbifly.com




SOURCES & CREDITS :

   NOAA